Terminal Aerodrome Forecast
Issued by NWS

Home | Current Version | Previous Version | Text Only | Print | Product List | Glossary On
Versions: 1 2 3 4 5 6 7 8 9 10 11 12 13 14 15 16 17 18 19 20 21 22
000
FTAK31 PAFA 231738
TAFAMC
TAF
PAMC 231738Z 2318/2418 VRB04KT P6SM SCT015 BKN025 BKN050
     FM240300 VRB04KT P6SM VCSH SCT015 BKN025 OVC035
     FM240600 VRB04KT 6SM -SN BR SCT015 OVC025
     FM240900 VRB04KT 4SM -SN BR SCT015 OVC025=

USA.gov is the U.S. government's official web portal to all federal, state and local government web resources and services.